Time;durP1;ratioP1;P1;durP2;ratioP2;P2;SDS_P1;SDS_P2;PMS_P1;PMS_P2;Temp;Humidity;BMP_temperature;BMP_pressure;BME280_temperature;BME280_humidity;BME280_pressure;Samples;Min_cycle;Max_cycle;Signal;HPM_P1;HPM_P2
2020/12/12 00:01:57;;;;;;;28.70;15.13;;;;;;;5.62;90.93;101260.88;6188535;28;20201;-78
2020/12/12 00:05:01;;;;;;;28.93;15.17;;;;;;;5.77;90.06;101251.00;6191285;28;20683;-77
2020/12/12 00:08:05;;;;;;;26.40;15.57;;;;;;;5.58;90.97;101248.69;6186786;28;20715;-77
2020/12/12 00:11:13;;;;;;;25.93;14.87;;;;;;;5.67;90.58;101253.06;6190114;28;20301;-77
2020/12/12 00:14:17;;;;;;;38.23;20.63;;;;;;;5.66;90.57;101263.03;6191274;28;20191;-78
2020/12/12 00:17:21;;;;;;;30.37;18.83;;;;;;;5.74;90.17;101264.03;6166827;28;20198;-79
2020/12/12 00:20:24;;;;;;;24.93;14.83;;;;;;;5.64;90.24;101264.25;6190098;28;20295;-77
2020/12/12 00:23:28;;;;;;;23.50;15.23;;;;;;;5.44;91.89;101263.81;6190978;28;20206;-77
2020/12/12 00:26:31;;;;;;;23.07;14.57;;;;;;;5.48;92.13;101264.28;6186108;28;20324;-77
2020/12/12 00:29:35;;;;;;;24.60;14.70;;;;;;;5.52;92.09;101279.19;6184665;28;20213;-78
2020/12/12 00:32:38;;;;;;;25.07;14.77;;;;;;;5.41;92.29;101257.88;6188639;28;20204;-78
2020/12/12 00:35:42;;;;;;;27.97;14.97;;;;;;;5.51;91.51;101272.06;6189604;28;20489;-78
2020/12/12 00:38:45;;;;;;;25.30;14.43;;;;;;;5.50;91.91;101263.09;6190828;28;20206;-77
2020/12/12 00:41:50;;;;;;;24.07;14.87;;;;;;;5.51;92.30;101269.34;6180571;28;20194;-77
2020/12/12 00:44:54;;;;;;;23.03;14.17;;;;;;;5.54;91.16;101274.44;6189385;28;20252;-77
2020/12/12 00:47:57;;;;;;;22.50;14.27;;;;;;;5.73;89.71;101274.00;6191174;28;20238;-77
2020/12/12 00:51:01;;;;;;;21.67;14.07;;;;;;;5.60;90.42;101271.00;6170457;28;20209;-78
2020/12/12 00:54:07;;;;;;;21.63;13.33;;;;;;;5.73;90.21;101273.19;6176264;28;20255;-79
2020/12/12 00:57:14;;;;;;;106.77;51.23;;;;;;;5.82;89.65;101278.38;6172364;28;20747;-77
2020/12/12 01:00:18;;;;;;;27.80;16.13;;;;;;;5.82;89.73;101283.81;6171443;28;20236;-77
2020/12/12 01:03:41;;;;;;;23.00;14.20;;;;;;;5.53;91.38;101280.84;6186844;28;20522;-79
2020/12/12 01:06:46;;;;;;;22.63;13.73;;;;;;;5.61;90.99;101270.00;6181398;28;20194;-76
2020/12/12 01:09:49;;;;;;;23.73;13.90;;;;;;;5.66;90.46;101273.88;6191691;28;20312;-80
2020/12/12 01:12:52;;;;;;;22.53;14.57;;;;;;;5.62;91.23;101279.81;6181718;28;20585;-78
2020/12/12 01:15:57;;;;;;;22.10;14.03;;;;;;;5.87;89.76;101278.75;6185531;28;20185;-77
2020/12/12 01:19:01;;;;;;;21.33;14.13;;;;;;;5.74;90.26;101264.88;6175007;28;20220;-80
2020/12/12 01:22:04;;;;;;;22.93;14.27;;;;;;;5.46;90.37;101239.25;6184902;28;20577;-77
2020/12/12 01:25:10;;;;;;;19.27;13.63;;;;;;;5.86;89.16;101247.25;6188146;28;20216;-79
2020/12/12 01:28:17;;;;;;;20.73;13.73;;;;;;;6.03;88.36;101270.53;6180922;28;20377;-79
2020/12/12 01:31:21;;;;;;;20.03;13.40;;;;;;;5.89;89.15;101268.56;6188593;28;20285;-78
2020/12/12 01:34:25;;;;;;;20.40;13.97;;;;;;;5.90;88.75;101259.44;6184215;28;20198;-77
2020/12/12 01:37:29;;;;;;;19.13;13.30;;;;;;;5.94;88.65;101266.16;6192664;28;20256;-78
2020/12/12 01:40:32;;;;;;;19.23;12.50;;;;;;;5.79;88.94;101257.06;6185552;28;20210;-76
2020/12/12 01:43:37;;;;;;;22.63;13.50;;;;;;;5.85;89.60;101264.53;6192810;28;20659;-77
2020/12/12 01:46:41;;;;;;;22.47;13.40;;;;;;;5.81;89.45;101263.16;6192612;28;20223;-77
2020/12/12 01:49:44;;;;;;;185.67;83.43;;;;;;;5.91;89.37;101263.81;6193308;28;20228;-77
2020/12/12 01:52:50;;;;;;;35.27;21.07;;;;;;;5.90;89.61;101266.72;6192107;28;20204;-78
2020/12/12 01:55:55;;;;;;;22.50;14.40;;;;;;;5.93;89.16;101253.63;6191531;28;20542;-76
2020/12/12 01:58:58;;;;;;;22.70;14.23;;;;;;;5.87;89.30;101259.78;6189411;28;20202;-77
2020/12/12 02:02:02;;;;;;;19.00;12.43;;;;;;;6.02;88.46;101260.72;6187201;28;20199;-77
2020/12/12 02:05:37;;;;;;;19.70;12.80;;;;;;;6.08;88.23;101257.31;6177451;28;20213;-78
2020/12/12 02:08:38;;;;;;;19.43;12.23;;;;;;;5.99;88.45;101252.94;6192238;28;20244;-77
2020/12/12 02:11:42;;;;;;;19.40;12.27;;;;;;;6.00;88.83;101254.66;6186969;28;20206;-77
2020/12/12 02:14:45;;;;;;;20.23;13.07;;;;;;;6.16;87.86;101249.09;6191022;28;20667;-78
2020/12/12 02:17:50;;;;;;;17.20;12.23;;;;;;;5.91;88.97;101244.84;6186516;28;20494;-77
2020/12/12 02:20:55;;;;;;;17.97;12.40;;;;;;;5.93;88.96;101253.63;6187250;28;20208;-77
2020/12/12 02:23:59;;;;;;;17.27;11.63;;;;;;;6.03;88.61;101248.88;6186382;28;20202;-78
2020/12/12 02:27:04;;;;;;;15.33;11.53;;;;;;;5.97;88.68;101249.56;6167738;28;20234;-79
2020/12/12 02:30:08;;;;;;;21.23;12.23;;;;;;;6.04;88.32;101250.53;6192423;28;20596;-76
2020/12/12 02:33:22;;;;;;;18.37;11.93;;;;;;;6.03;88.43;101259.72;6185010;28;20226;-78
2020/12/12 02:36:26;;;;;;;13.07;10.90;;;;;;;6.09;88.44;101253.56;6191000;28;20194;-79
2020/12/12 02:39:31;;;;;;;16.53;11.83;;;;;;;6.08;88.33;101262.72;6197382;28;20206;-77
2020/12/12 02:42:34;;;;;;;20.17;11.37;;;;;;;6.12;88.10;101261.34;6190825;28;20664;-78
2020/12/12 02:45:39;;;;;;;17.30;12.10;;;;;;;6.01;89.14;101267.16;6191290;28;20343;-77
2020/12/12 02:48:43;;;;;;;18.60;12.70;;;;;;;5.78;90.47;101266.19;6195333;28;20447;-77
2020/12/12 02:51:46;;;;;;;16.47;11.63;;;;;;;5.82;90.90;101269.41;6188014;28;20202;-80
2020/12/12 02:54:50;;;;;;;19.37;13.13;;;;;;;5.81;91.24;101260.44;6178395;28;20656;-78
2020/12/12 02:57:54;;;;;;;18.10;12.10;;;;;;;5.80;91.34;101269.59;6194518;28;20235;-77
2020/12/12 03:00:58;;;;;;;18.87;12.70;;;;;;;5.78;91.38;101271.63;6196571;28;20312;-79
2020/12/12 03:04:03;;;;;;;16.17;11.93;;;;;;;5.97;90.60;101268.53;6196812;28;20201;-77
2020/12/12 03:07:09;;;;;;;14.30;10.77;;;;;;;5.92;90.65;101257.38;6188816;28;20274;-76
2020/12/12 03:10:18;;;;;;;14.90;11.07;;;;;;;5.61;92.62;101251.06;6191616;28;20257;-77
2020/12/12 03:13:23;;;;;;;14.27;10.67;;;;;;;5.77;91.83;101256.41;6195409;28;20204;-80
2020/12/12 03:16:27;;;;;;;15.10;10.83;;;;;;;5.64;92.10;101237.16;6183871;28;20203;-77
2020/12/12 03:19:30;;;;;;;15.43;10.57;;;;;;;5.75;91.92;101255.75;6186139;28;20291;-78
2020/12/12 03:22:35;;;;;;;15.57;10.63;;;;;;;5.91;91.54;101260.25;6175917;28;20197;-76
2020/12/12 03:25:39;;;;;;;15.10;10.10;;;;;;;5.96;90.87;101255.16;6188744;28;20671;-77
2020/12/12 03:28:42;;;;;;;14.20;10.53;;;;;;;5.88;91.56;101266.88;6193373;28;20324;-78
2020/12/12 03:31:46;;;;;;;12.27;9.80;;;;;;;5.90;91.54;101270.25;6188536;28;20624;-79
2020/12/12 03:34:50;;;;;;;14.20;9.87;;;;;;;5.84;91.78;101270.94;6194067;28;20205;-79
2020/12/12 03:37:53;;;;;;;11.07;9.07;;;;;;;5.80;91.84;101275.03;6186297;28;20299;-76
2020/12/12 03:41:11;;;;;;;9.53;7.83;;;;;;;5.96;90.71;101261.41;6195244;28;20217;-78
2020/12/12 03:44:15;;;;;;;11.40;8.83;;;;;;;5.78;91.40;101260.78;6190800;28;20557;-77
2020/12/12 03:47:18;;;;;;;13.37;9.53;;;;;;;5.83;91.80;101258.38;6194110;28;20648;-76
2020/12/12 03:50:27;;;;;;;15.20;8.87;;;;;;;5.75;92.75;101261.16;6191142;28;20707;-77
2020/12/12 03:53:31;;;;;;;12.83;9.60;;;;;;;5.86;92.46;101268.91;6190995;28;20209;-79
2020/12/12 03:56:36;;;;;;;13.20;9.00;;;;;;;5.95;91.44;101276.00;6182125;28;20209;-77
2020/12/12 03:59:40;;;;;;;12.57;9.30;;;;;;;5.88;92.11;101266.88;6160543;28;20211;-77
2020/12/12 04:02:43;;;;;;;11.73;8.83;;;;;;;5.91;91.86;101271.94;6192769;28;20223;-77
2020/12/12 04:05:47;;;;;;;9.00;8.10;;;;;;;5.87;92.42;101265.19;6193599;28;20209;-79
2020/12/12 04:08:50;;;;;;;9.87;8.67;;;;;;;6.02;91.80;101279.69;6195298;28;20193;-78
2020/12/12 04:11:54;;;;;;;10.83;8.67;;;;;;;6.05;91.19;101273.91;6158255;28;20213;-77
2020/12/12 04:14:57;;;;;;;13.47;9.13;;;;;;;6.07;90.87;101255.59;6178383;28;20206;-77
2020/12/12 04:18:01;;;;;;;9.93;8.60;;;;;;;5.95;91.94;101273.28;6186776;28;20544;-79
2020/12/12 04:21:07;;;;;;;10.70;9.37;;;;;;;5.88;92.65;101261.44;6186968;28;20297;-77
2020/12/12 04:24:12;;;;;;;12.20;9.97;;;;;;;6.00;91.94;101268.19;6190365;28;20668;-77
2020/12/12 04:27:17;;;;;;;11.13;9.43;;;;;;;5.99;92.21;101258.34;6192313;28;20225;-77
2020/12/12 04:30:20;;;;;;;11.83;9.63;;;;;;;5.84;93.06;101270.94;6175653;28;20263;-79
2020/12/12 04:33:28;;;;;;;14.23;9.80;;;;;;;5.67;94.52;101253.06;6187563;28;20412;-78
2020/12/12 04:36:33;;;;;;;14.40;9.63;;;;;;;5.71;93.90;101248.97;6167709;28;20307;-78
2020/12/12 04:39:37;;;;;;;11.47;9.93;;;;;;;5.73;94.49;101263.19;6187066;28;20673;-78
2020/12/12 04:42:42;;;;;;;15.33;9.83;;;;;;;5.66;94.60;101240.53;6186253;28;20210;-76
2020/12/12 04:45:48;;;;;;;11.97;9.83;;;;;;;5.74;94.93;101250.50;6189453;28;20204;-77
2020/12/12 04:48:52;;;;;;;12.40;9.87;;;;;;;5.76;93.99;101259.28;6184502;28;20719;-78
2020/12/12 04:51:56;;;;;;;11.80;9.60;;;;;;;5.78;94.02;101260.78;6182400;28;20222;-77
2020/12/12 04:55:05;;;;;;;14.80;10.07;;;;;;;5.80;94.32;101253.34;6188078;28;20288;-77
2020/12/12 04:58:16;;;;;;;13.43;9.67;;;;;;;5.73;94.57;101246.94;6176932;28;20832;-78
2020/12/12 05:01:20;;;;;;;12.87;9.10;;;;;;;5.80;93.21;101231.69;6192547;28;20240;-78
2020/12/12 05:04:24;;;;;;;10.23;8.93;;;;;;;5.87;93.16;101259.78;6188181;28;20229;-80
2020/12/12 05:07:27;;;;;;;12.40;9.90;;;;;;;5.84;93.63;101248.41;6192760;28;20283;-77
2020/12/12 05:10:36;;;;;;;10.17;9.13;;;;;;;5.69;94.00;101241.03;6192640;28;20221;-76
2020/12/12 05:13:40;;;;;;;12.23;9.67;;;;;;;5.88;93.44;101252.50;6177652;28;20542;-77
2020/12/12 05:16:45;;;;;;;11.20;8.73;;;;;;;5.76;93.74;101233.06;6190428;28;20245;-79
2020/12/12 05:19:49;;;;;;;10.87;8.87;;;;;;;5.76;94.54;101256.56;6188632;28;20201;-80
2020/12/12 05:22:52;;;;;;;13.20;9.00;;;;;;;5.91;93.88;101252.97;6192745;28;20536;-77
2020/12/12 05:25:57;;;;;;;11.90;8.70;;;;;;;5.97;93.27;101260.41;6192153;28;20267;-76
2020/12/12 05:29:24;;;;;;;11.30;8.90;;;;;;;5.72;94.54;101256.09;6163712;28;20195;-77
2020/12/12 05:32:27;;;;;;;10.63;8.47;;;;;;;5.82;94.33;101256.72;6166250;28;20217;-76
2020/12/12 05:35:34;;;;;;;11.03;8.27;;;;;;;6.00;93.40;101260.06;6166380;28;20403;-78
2020/12/12 05:38:37;;;;;;;10.57;9.00;;;;;;;5.86;93.70;101252.66;6167612;28;20416;-77
2020/12/12 05:41:41;;;;;;;8.97;8.07;;;;;;;5.85;93.63;101245.59;6169046;28;20258;-77
2020/12/12 05:44:48;;;;;;;9.30;8.33;;;;;;;5.75;94.59;101258.47;6163883;28;20213;-78
2020/12/12 05:47:51;;;;;;;8.53;7.73;;;;;;;5.73;94.79;101252.34;6164735;28;20500;-76
2020/12/12 05:50:55;;;;;;;9.17;7.50;;;;;;;5.71;95.51;101257.09;6167652;28;20225;-77
2020/12/12 05:53:59;;;;;;;7.97;6.97;;;;;;;5.90;94.23;101259.44;6168658;28;20363;-78
2020/12/12 05:57:03;;;;;;;8.03;6.77;;;;;;;5.97;93.34;101246.88;6161682;28;20218;-78
2020/12/12 06:00:09;;;;;;;7.40;6.80;;;;;;;5.89;93.63;101252.31;6164857;28;20219;-78
2020/12/12 06:03:31;;;;;;;8.40;7.07;;;;;;;5.91;93.83;101263.81;6165496;28;20210;-80
2020/12/12 06:06:42;;;;;;;7.83;7.10;;;;;;;5.71;94.86;101270.63;6168723;28;20565;-78
2020/12/12 06:09:49;;;;;;;8.90;6.67;;;;;;;5.83;94.81;101258.38;6173707;28;20328;-76
2020/12/12 06:12:58;;;;;;;7.57;6.87;;;;;;;5.96;93.79;101269.53;6171126;28;20221;-77
2020/12/12 06:16:05;;;;;;;6.90;6.20;;;;;;;5.84;92.67;101222.19;6169474;28;20190;-77
2020/12/12 06:19:12;;;;;;;9.13;7.00;;;;;;;5.94;93.68;101266.16;6165202;28;20203;-75
2020/12/12 06:22:21;;;;;;;8.37;6.67;;;;;;;5.88;94.20;101260.63;6166193;28;20190;-78
2020/12/12 06:25:26;;;;;;;7.70;6.90;;;;;;;6.10;92.80;101265.25;6164089;28;20226;-77
2020/12/12 06:28:37;;;;;;;7.50;6.80;;;;;;;6.07;92.67;101266.44;6189766;28;20581;-77
2020/12/12 06:31:42;;;;;;;9.60;6.93;;;;;;;5.85;94.13;101267.25;6194561;28;20224;-77
2020/12/12 06:34:49;;;;;;;8.03;7.07;;;;;;;5.98;94.10;101272.94;6190593;28;20203;-77
2020/12/12 06:37:52;;;;;;;6.57;6.10;;;;;;;5.84;94.72;101268.22;6190242;28;20536;-78
2020/12/12 06:40:58;;;;;;;6.87;6.27;;;;;;;5.91;93.89;101277.34;6178279;28;20217;-79
2020/12/12 06:44:01;;;;;;;6.80;6.20;;;;;;;6.05;93.32;101273.06;6195321;28;20190;-77
2020/12/12 06:47:07;;;;;;;6.20;5.70;;;;;;;6.17;92.69;101280.63;6185105;28;20314;-76
2020/12/12 06:50:15;;;;;;;6.10;5.70;;;;;;;6.00;93.02;101272.75;6187404;28;20781;-78
2020/12/12 06:53:23;;;;;;;5.87;5.37;;;;;;;5.98;92.73;101286.47;6196298;28;20194;-78
2020/12/12 06:56:32;;;;;;;5.90;5.40;;;;;;;5.72;94.46;101283.16;6196015;28;20206;-78
2020/12/12 06:59:36;;;;;;;7.00;5.43;;;;;;;6.01;93.30;101288.81;6194571;28;20209;-77
2020/12/12 07:02:53;;;;;;;6.07;5.50;;;;;;;6.07;93.01;101293.53;6194582;28;20555;-78
2020/12/12 07:06:06;;;;;;;5.47;4.83;;;;;;;5.91;93.62;101290.91;6185719;28;20572;-77
2020/12/12 07:09:15;;;;;;;4.77;4.57;;;;;;;5.74;94.65;101285.69;6190055;28;20237;-77
2020/12/12 07:12:21;;;;;;;5.77;5.47;;;;;;;6.01;93.80;101277.97;6196075;28;20436;-76
2020/12/12 07:15:28;;;;;;;5.47;5.07;;;;;;;5.83;94.53;101282.75;6182295;28;20293;-78
2020/12/12 07:18:34;;;;;;;5.37;4.97;;;;;;;5.80;95.23;101274.16;6185627;28;20284;-77
2020/12/12 07:21:39;;;;;;;5.93;5.53;;;;;;;5.95;94.34;101272.44;6187688;28;20494;-79
2020/12/12 07:24:42;;;;;;;5.27;4.97;;;;;;;5.66;94.06;101244.09;6187774;28;20225;-78
2020/12/12 07:27:46;;;;;;;7.60;4.80;;;;;;;5.86;94.03;101260.78;6180487;28;20259;-77
2020/12/12 07:30:49;;;;;;;5.03;4.77;;;;;;;6.04;93.54;101266.78;6190940;28;20232;-78
2020/12/12 07:33:53;;;;;;;6.13;5.00;;;;;;;5.93;94.07;101275.31;6181312;28;20217;-77
2020/12/12 07:37:01;;;;;;;4.70;4.50;;;;;;;5.95;94.05;101284.13;6185730;28;20635;-79
2020/12/12 07:40:05;;;;;;;7.63;4.60;;;;;;;5.89;93.92;101268.56;6188160;28;20221;-77
2020/12/12 07:43:13;;;;;;;5.03;4.70;;;;;;;5.75;94.34;101258.47;6184243;28;20212;-78
2020/12/12 07:46:16;;;;;;;5.33;4.83;;;;;;;5.78;94.69;101277.03;6178220;28;20285;-79
2020/12/12 07:49:20;;;;;;;4.90;4.50;;;;;;;5.94;93.72;101263.47;6188375;28;20602;-79
2020/12/12 07:52:25;;;;;;;5.10;4.77;;;;;;;5.94;93.94;101282.41;6182096;28;20225;-78
2020/12/12 07:55:30;;;;;;;5.57;4.90;;;;;;;5.62;95.17;101244.63;6179694;28;20202;-78
2020/12/12 07:58:37;;;;;;;6.37;4.87;;;;;;;5.58;95.91;101254.09;6187443;28;20205;-78
2020/12/12 08:01:41;;;;;;;5.33;4.87;;;;;;;6.05;94.50;101271.19;6188898;28;20213;-78
2020/12/12 08:04:45;;;;;;;5.20;4.37;;;;;;;6.03;94.24;101275.97;6186569;28;20248;-78
2020/12/12 08:07:49;;;;;;;5.00;4.70;;;;;;;6.06;93.78;101302.66;6189069;28;20194;-77
2020/12/12 08:11:08;;;;;;;5.43;4.33;;;;;;;6.14;93.43;101288.25;6182080;28;20672;-79
2020/12/12 08:14:15;;;;;;;4.67;4.47;;;;;;;6.05;93.41;101289.31;6176656;28;20210;-78
2020/12/12 08:17:20;;;;;;;4.37;4.07;;;;;;;5.87;95.17;101289.56;6180421;28;20296;-79
2020/12/12 08:20:25;;;;;;;5.50;5.00;;;;;;;6.00;94.20;101281.72;6189350;28;20205;-78
2020/12/12 08:23:34;;;;;;;5.43;5.03;;;;;;;5.92;94.89;101284.47;6193656;28;20660;-79
2020/12/12 08:26:37;;;;;;;5.57;5.07;;;;;;;6.15;93.69;101288.06;6184835;28;20201;-77
2020/12/12 08:29:43;;;;;;;5.77;5.20;;;;;;;6.08;93.77;101287.09;6194139;28;20205;-78
2020/12/12 08:32:47;;;;;;;4.80;4.50;;;;;;;6.10;93.80;101287.78;6184652;28;20267;-78
2020/12/12 08:35:51;;;;;;;8.93;4.90;;;;;;;6.26;92.73;101298.53;6182428;28;20190;-78
2020/12/12 08:38:56;;;;;;;5.67;4.90;;;;;;;6.18;93.49;101290.44;6182356;28;20262;-77
2020/12/12 08:42:00;;;;;;;5.43;5.03;;;;;;;5.99;94.43;101300.84;6190682;28;20636;-78
2020/12/12 08:45:15;;;;;;;5.37;4.90;;;;;;;6.04;94.55;101299.31;6180189;28;20216;-77
2020/12/12 08:48:31;;;;;;;5.63;5.13;;;;;;;6.13;94.48;101292.84;6181272;28;20230;-78
2020/12/12 08:51:36;;;;;;;4.83;4.53;;;;;;;6.20;93.76;101301.09;6189440;28;20323;-79
2020/12/12 08:54:39;;;;;;;9.97;5.23;;;;;;;6.11;94.52;101296.75;6184039;28;20209;-77
2020/12/12 08:57:56;;;;;;;5.70;4.40;;;;;;;6.16;94.49;101314.13;6191806;28;20461;-78
2020/12/12 09:01:09;;;;;;;5.00;4.60;;;;;;;6.34;93.28;101305.78;6190348;28;20195;-79
2020/12/12 09:04:21;;;;;;;5.47;5.07;;;;;;;6.29;92.89;101281.88;6190185;28;20202;-78
2020/12/12 09:07:25;;;;;;;6.13;4.37;;;;;;;6.24;94.40;101300.53;6187442;28;20555;-78
2020/12/12 09:10:29;;;;;;;4.53;4.23;;;;;;;6.35;93.42;101295.75;6186634;28;20280;-78
2020/12/12 09:13:32;;;;;;;5.70;5.20;;;;;;;6.22;94.00;101308.03;6186830;28;20252;-78
2020/12/12 09:16:38;;;;;;;4.80;4.37;;;;;;;6.10;94.78;101304.03;6185376;28;20315;-78
2020/12/12 09:19:41;;;;;;;5.27;4.77;;;;;;;6.07;94.50;101281.84;6169681;28;20202;-81
2020/12/12 09:22:46;;;;;;;5.20;4.80;;;;;;;6.14;94.87;101291.78;6183103;28;20620;-78
2020/12/12 09:25:49;;;;;;;5.03;4.60;;;;;;;6.23;94.34;101293.47;6183602;28;20206;-79
2020/12/12 09:28:52;;;;;;;5.33;4.90;;;;;;;6.22;94.69;101299.03;6183785;28;20240;-77
2020/12/12 09:31:57;;;;;;;5.43;5.13;;;;;;;5.77;94.24;101221.22;6188319;28;20353;-77
2020/12/12 09:35:01;;;;;;;5.10;4.70;;;;;;;6.34;93.75;101296.78;6182107;28;20204;-77
2020/12/12 09:38:07;;;;;;;5.73;5.33;;;;;;;6.53;92.78;101293.59;6186804;28;20221;-77
2020/12/12 09:41:11;;;;;;;5.60;5.10;;;;;;;6.43;93.54;101298.41;6186499;28;20667;-78
2020/12/12 09:44:14;;;;;;;5.57;5.20;;;;;;;6.32;93.92;101296.13;6183888;28;20304;-77
2020/12/12 09:47:18;;;;;;;5.63;5.33;;;;;;;5.76;95.40;101227.63;6187773;28;20208;-81
2020/12/12 09:50:33;;;;;;;5.80;5.37;;;;;;;6.39;94.34;101286.25;6184359;28;20582;-79
2020/12/12 09:53:37;;;;;;;5.53;5.23;;;;;;;6.23;95.12;101282.63;6164483;28;20230;-77
2020/12/12 09:56:41;;;;;;;6.47;5.87;;;;;;;6.47;93.78;101288.91;6181365;28;20205;-81
2020/12/12 09:59:44;;;;;;;6.70;6.10;;;;;;;6.22;94.61;101286.34;6191159;28;20204;-78
2020/12/12 10:02:48;;;;;;;6.40;5.90;;;;;;;6.39;94.56;101297.09;6180169;28;20347;-77
2020/12/12 10:05:51;;;;;;;7.17;6.53;;;;;;;6.40;94.03;101294.19;6166711;28;20209;-78
2020/12/12 10:08:56;;;;;;;6.80;6.30;;;;;;;6.22;95.86;101286.34;6183378;28;20211;-77
2020/12/12 10:12:01;;;;;;;6.70;6.17;;;;;;;6.35;95.10;101291.19;6185863;28;20218;-78
2020/12/12 10:15:05;;;;;;;8.40;7.60;;;;;;;6.13;95.51;101284.72;6186727;28;20325;-78
2020/12/12 10:18:16;;;;;;;6.93;6.40;;;;;;;6.18;95.83;101257.06;6189468;28;20585;-77
2020/12/12 10:21:22;;;;;;;8.23;7.43;;;;;;;6.29;95.03;101287.31;6179182;28;20335;-75
2020/12/12 10:24:26;;;;;;;7.57;6.87;;;;;;;6.32;94.82;101276.13;6190424;28;20264;-78
2020/12/12 10:27:30;;;;;;;7.50;6.80;;;;;;;6.55;94.01;101286.16;6183107;28;20652;-78
2020/12/12 10:30:33;;;;;;;7.90;7.10;;;;;;;6.47;94.23;101283.50;6188885;28;20217;-77
2020/12/12 10:33:36;;;;;;;7.93;7.13;;;;;;;6.58;93.81;101283.06;6180458;28;20213;-79
2020/12/12 10:36:57;;;;;;;7.77;7.17;;;;;;;6.11;93.37;101197.31;6187726;28;20198;-79
2020/12/12 10:40:08;;;;;;;7.43;6.73;;;;;;;6.57;93.27;101268.69;6183619;28;20206;-80
2020/12/12 10:43:18;;;;;;;7.50;6.50;;;;;;;6.58;93.12;101275.78;6187083;28;20201;-78
2020/12/12 10:46:21;;;;;;;9.20;7.07;;;;;;;6.61;92.92;101285.41;6184261;28;20214;-78
2020/12/12 10:49:26;;;;;;;7.17;6.53;;;;;;;6.57;93.11;101284.09;6170757;28;20230;-79
2020/12/12 10:52:29;;;;;;;9.23;6.83;;;;;;;6.46;93.41;101265.53;6193968;28;20210;-80
2020/12/12 10:55:34;;;;;;;7.73;6.97;;;;;;;6.43;94.27;101276.72;6184354;28;20580;-79
2020/12/12 10:58:37;;;;;;;7.43;6.73;;;;;;;6.43;94.07;101276.72;6191209;28;20289;-77
2020/12/12 11:01:40;;;;;;;9.50;7.33;;;;;;;6.56;92.78;101275.13;6194885;28;20676;-82
2020/12/12 11:04:44;;;;;;;9.70;7.30;;;;;;;6.47;94.04;101283.50;6193688;28;20191;-78
2020/12/12 11:07:47;;;;;;;7.83;7.07;;;;;;;6.69;92.82;101288.06;6187889;28;20202;-77
2020/12/12 11:10:51;;;;;;;7.77;7.07;;;;;;;6.50;93.55;101278.53;6188595;28;20256;-76
2020/12/12 11:13:55;;;;;;;7.97;6.93;;;;;;;6.66;92.95;101272.16;6184660;28;20226;-76
2020/12/12 11:16:59;;;;;;;7.70;7.00;;;;;;;6.66;92.66;101272.16;6173867;28;20640;-77
2020/12/12 11:20:03;;;;;;;7.67;6.93;;;;;;;6.60;92.37;101259.34;6189503;28;20260;-77
2020/12/12 11:23:09;;;;;;;8.17;7.47;;;;;;;6.38;94.53;101289.97;6190652;28;20195;-78
2020/12/12 11:26:19;;;;;;;13.40;8.53;;;;;;;6.46;94.30;101276.38;6196720;28;20218;-77
2020/12/12 11:29:22;;;;;;;11.10;7.97;;;;;;;6.50;94.37;101277.69;6195070;28;20272;-79
2020/12/12 11:32:26;;;;;;;9.63;7.80;;;;;;;6.45;95.28;101285.50;6187442;28;20227;-78
2020/12/12 11:35:36;;;;;;;8.20;7.40;;;;;;;6.51;94.71;101274.81;6186016;28;20209;-79
2020/12/12 11:38:44;;;;;;;9.07;8.17;;;;;;;6.51;95.14;101282.09;6194114;28;20295;-82
2020/12/12 11:42:08;;;;;;;11.13;7.77;;;;;;;6.54;93.83;101258.19;6197590;28;20761;-81
2020/12/12 11:48:36;;;;;;;9.10;7.63;;;;;;;6.79;93.75;101284.09;6190762;28;20232;-79
2020/12/12 11:51:40;;;;;;;9.80;7.97;;;;;;;6.44;94.60;101254.03;6196906;28;20580;-80
2020/12/12 11:54:43;;;;;;;8.97;8.07;;;;;;;6.63;94.42;101283.34;6184216;28;20708;-77
2020/12/12 11:57:47;;;;;;;11.50;8.67;;;;;;;6.48;95.17;101290.59;6191839;28;20705;-78
2020/12/12 12:00:51;;;;;;;10.30;9.00;;;;;;;6.50;95.61;101293.94;6189607;28;20601;-79
2020/12/12 12:03:56;;;;;;;10.63;8.43;;;;;;;6.62;94.79;101297.97;6184074;28;20747;-77
2020/12/12 12:07:02;;;;;;;10.77;8.40;;;;;;;6.49;95.71;101295.00;6189499;28;20248;-79
2020/12/12 12:10:12;;;;;;;10.07;9.03;;;;;;;6.58;95.19;101292.03;6176690;28;20630;-80
2020/12/12 12:13:19;;;;;;;10.10;8.43;;;;;;;6.78;94.09;101293.25;6196251;28;20860;-79
2020/12/12 12:16:23;;;;;;;13.80;9.17;;;;;;;6.77;94.23;101290.72;6191978;28;20273;-81
2020/12/12 12:19:26;;;;;;;9.10;8.13;;;;;;;6.65;94.28;101286.75;6186262;28;20202;-81
2020/12/12 12:22:30;;;;;;;10.57;9.07;;;;;;;6.51;95.45;101306.50;6185279;28;20219;-76
2020/12/12 12:25:33;;;;;;;11.23;9.17;;;;;;;6.33;96.07;101276.97;6188204;28;20240;-82
2020/12/12 12:28:37;;;;;;;10.77;8.23;;;;;;;6.70;94.60;101303.34;6192210;28;20375;-76
2020/12/12 12:31:43;;;;;;;10.50;8.70;;;;;;;6.64;94.49;101301.31;6186237;28;20225;-78
2020/12/12 12:34:46;;;;;;;11.03;8.30;;;;;;;6.83;93.85;101292.72;6183363;28;20202;-80
2020/12/12 12:37:50;;;;;;;11.15;9.05;;;;;;;6.62;94.97;101300.66;6212779;28;20229;-79
2020/12/12 12:40:53;;;;;;;13.27;9.27;;;;;;;6.50;95.69;101304.78;6196841;28;20295;-79
2020/12/12 12:44:01;;;;;;;12.60;8.93;;;;;;;6.75;94.58;101303.63;6211349;28;20250;-78
2020/12/12 12:47:04;;;;;;;14.47;9.00;;;;;;;6.80;94.35;101302.06;6207969;28;20201;-81
2020/12/12 12:50:07;;;;;;;12.87;9.43;;;;;;;6.73;94.37;101294.81;6213559;28;20222;-80
2020/12/12 12:53:16;;;;;;;11.27;8.57;;;;;;;6.37;96.20;101288.31;6203244;28;20222;-79
2020/12/12 12:56:23;;;;;;;9.53;8.40;;;;;;;6.25;96.87;101286.00;6208790;28;20196;-78
2020/12/12 12:59:28;;;;;;;10.37;8.00;;;;;;;6.62;95.90;101293.38;6214737;28;20306;-76
2020/12/12 13:02:31;;;;;;;10.40;8.10;;;;;;;6.70;95.14;101295.19;6211448;28;20200;-78
2020/12/12 13:05:35;;;;;;;9.77;7.97;;;;;;;6.43;96.22;101282.16;6213878;28;20243;-77
2020/12/12 13:08:39;;;;;;;11.37;7.87;;;;;;;6.49;96.64;101289.56;6212750;28;20671;-79
2020/12/12 13:11:43;;;;;;;8.93;7.87;;;;;;;6.48;97.01;101296.00;6211579;28;20280;-78
2020/12/12 13:14:47;;;;;;;11.67;7.90;;;;;;;6.59;95.87;101292.88;6209899;28;20231;-78
2020/12/12 13:17:51;;;;;;;7.83;7.03;;;;;;;6.51;96.93;101290.22;6204123;28;20196;-77
2020/12/12 13:21:01;;;;;;;8.03;7.23;;;;;;;6.69;95.60;101298.91;6213203;28;20627;-75
2020/12/12 13:24:05;;;;;;;7.93;6.87;;;;;;;6.77;94.97;101288.00;6213022;28;20205;-78
2020/12/12 13:27:08;;;;;;;7.30;6.50;;;;;;;6.73;95.13;101290.22;6214250;28;20236;-78
2020/12/12 13:30:16;;;;;;;8.30;7.40;;;;;;;6.87;94.04;101286.75;6215634;28;20196;-75
2020/12/12 13:33:30;;;;;;;9.83;6.50;;;;;;;6.99;93.23;101297.13;6208393;28;20268;-75
2020/12/12 13:36:34;;;;;;;7.10;6.40;;;;;;;6.63;94.84;101307.75;6209291;28;20213;-77
2020/12/12 13:39:37;;;;;;;6.87;6.20;;;;;;;6.60;94.67;101289.97;6216594;28;20196;-75
2020/12/12 13:42:40;;;;;;;9.03;6.90;;;;;;;6.79;93.94;101299.50;6212641;28;20292;-76
2020/12/12 13:45:45;;;;;;;6.97;6.27;;;;;;;6.74;94.74;101301.94;6209160;28;20204;-77
2020/12/12 13:48:48;;;;;;;6.33;5.73;;;;;;;6.71;94.25;101294.16;6213355;28;20311;-79
2020/12/12 13:51:51;;;;;;;8.20;6.10;;;;;;;6.80;93.77;101312.06;6210045;28;20204;-78
2020/12/12 13:54:54;;;;;;;5.87;5.40;;;;;;;6.71;94.45;101307.72;6216461;28;20219;-79
2020/12/12 13:57:57;;;;;;;6.37;5.67;;;;;;;6.79;94.04;101307.66;6213005;28;20196;-79
2020/12/12 14:01:02;;;;;;;6.30;5.80;;;;;;;6.86;93.45;101322.16;6197126;28;20203;-78
2020/12/12 14:04:12;;;;;;;6.73;6.13;;;;;;;6.82;93.75;101320.84;6210140;28;20317;-79
2020/12/12 14:07:26;;;;;;;6.20;5.70;;;;;;;6.74;94.37;101318.19;6206515;28;20246;-77
2020/12/12 14:10:47;;;;;;;6.90;5.77;;;;;;;6.81;93.95;101327.28;6214377;28;20220;-76
2020/12/12 14:21:03;;;;;;;5.67;5.27;;;;;;;6.67;94.99;101325.38;6211352;28;20312;-78
2020/12/12 14:24:08;;;;;;;5.80;5.20;;;;;;;6.90;93.58;101339.78;6214678;28;20664;-80
2020/12/12 14:30:39;;;;;;;6.03;5.43;;;;;;;6.75;94.06;101325.31;6200842;28;20513;-78
2020/12/12 14:33:45;;;;;;;7.20;6.20;;;;;;;6.75;94.05;101325.31;6217718;28;20217;-79
2020/12/12 14:36:49;;;;;;;7.37;5.67;;;;;;;6.83;94.13;101330.69;6214970;28;20239;-78
2020/12/12 14:39:52;;;;;;;6.23;5.73;;;;;;;6.86;93.89;101333.88;6218540;28;20703;-78